Terminal Aerodrome Forecast
Issued by NWS

Home | Current Version | Previous Version | Text Only | Print | Product List | Glossary On
Versions: 1 2 3 4 5 6 7 8 9 10 11 12 13 14
000
FTUS43 KGRR 300200 AAA
TAFAZO
TAF AMD
KAZO 300258Z 3003/3024 28018G26KT P6SM VCSH OVC025
     FM300430 28013G20KT P6SM SCT015 BKN035
     FM300700 28010KT P6SM FEW035=

USA.gov is the U.S. government's official web portal to all federal, state and local government web resources and services.